sensor_id;sensor_type;location;lat;lon;timestamp;P1;durP1;ratioP1;P2;durP2;ratioP2
3341;SDS011;1684;50.748;6.154;2023-03-04T00:01:36;69.90;;;28.50;;
3341;SDS011;1684;50.748;6.154;2023-03-04T00:04:04;73.60;;;28.60;;
3341;SDS011;1684;50.748;6.154;2023-03-04T00:06:33;63.33;;;25.83;;
3341;SDS011;1684;50.748;6.154;2023-03-04T00:09:01;64.57;;;29.30;;
3341;SDS011;1684;50.748;6.154;2023-03-04T00:11:30;73.53;;;28.53;;
3341;SDS011;1684;50.748;6.154;2023-03-04T00:13:58;61.53;;;28.43;;
3341;SDS011;1684;50.748;6.154;2023-03-04T00:16:26;75.50;;;28.83;;
3341;SDS011;1684;50.748;6.154;2023-03-04T00:18:56;72.63;;;28.00;;
3341;SDS011;1684;50.748;6.154;2023-03-04T00:21:25;68.50;;;30.07;;
3341;SDS011;1684;50.748;6.154;2023-03-04T00:23:53;65.50;;;28.07;;
3341;SDS011;1684;50.748;6.154;2023-03-04T00:26:21;61.17;;;28.43;;
3341;SDS011;1684;50.748;6.154;2023-03-04T00:28:50;65.80;;;30.17;;
3341;SDS011;1684;50.748;6.154;2023-03-04T00:31:18;69.20;;;26.93;;
3341;SDS011;1684;50.748;6.154;2023-03-04T00:33:46;63.20;;;29.63;;
3341;SDS011;1684;50.748;6.154;2023-03-04T00:36:16;73.77;;;32.10;;
3341;SDS011;1684;50.748;6.154;2023-03-04T00:38:44;80.03;;;30.37;;
3341;SDS011;1684;50.748;6.154;2023-03-04T00:41:13;61.33;;;29.90;;
3341;SDS011;1684;50.748;6.154;2023-03-04T00:43:41;75.27;;;29.50;;
3341;SDS011;1684;50.748;6.154;2023-03-04T00:46:09;86.53;;;30.30;;
3341;SDS011;1684;50.748;6.154;2023-03-04T00:48:38;73.87;;;29.87;;
3341;SDS011;1684;50.748;6.154;2023-03-04T00:51:06;83.03;;;34.03;;
3341;SDS011;1684;50.748;6.154;2023-03-04T00:53:36;84.80;;;31.60;;
3341;SDS011;1684;50.748;6.154;2023-03-04T00:56:04;75.83;;;32.37;;
3341;SDS011;1684;50.748;6.154;2023-03-04T00:58:33;65.93;;;28.43;;
3341;SDS011;1684;50.748;6.154;2023-03-04T01:01:01;65.03;;;30.43;;
3341;SDS011;1684;50.748;6.154;2023-03-04T01:03:30;69.23;;;29.13;;
3341;SDS011;1684;50.748;6.154;2023-03-04T01:05:58;74.60;;;30.80;;
3341;SDS011;1684;50.748;6.154;2023-03-04T01:08:26;75.30;;;30.30;;
3341;SDS011;1684;50.748;6.154;2023-03-04T01:10:56;70.50;;;28.40;;
3341;SDS011;1684;50.748;6.154;2023-03-04T01:13:24;71.87;;;30.23;;
3341;SDS011;1684;50.748;6.154;2023-03-04T01:15:53;61.77;;;26.27;;
3341;SDS011;1684;50.748;6.154;2023-03-04T01:18:21;61.63;;;30.83;;
3341;SDS011;1684;50.748;6.154;2023-03-04T01:20:50;67.47;;;28.13;;
3341;SDS011;1684;50.748;6.154;2023-03-04T01:23:18;69.90;;;28.63;;
3341;SDS011;1684;50.748;6.154;2023-03-04T01:25:46;61.93;;;27.67;;
3341;SDS011;1684;50.748;6.154;2023-03-04T01:28:16;75.30;;;28.77;;
3341;SDS011;1684;50.748;6.154;2023-03-04T01:30:44;63.20;;;25.37;;
3341;SDS011;1684;50.748;6.154;2023-03-04T01:33:12;58.67;;;23.00;;
3341;SDS011;1684;50.748;6.154;2023-03-04T01:35:41;55.07;;;26.13;;
3341;SDS011;1684;50.748;6.154;2023-03-04T01:38:09;59.40;;;23.37;;
3341;SDS011;1684;50.748;6.154;2023-03-04T01:40:37;66.50;;;24.83;;
3341;SDS011;1684;50.748;6.154;2023-03-04T01:43:06;69.33;;;27.90;;
3341;SDS011;1684;50.748;6.154;2023-03-04T01:45:35;59.33;;;24.60;;
3341;SDS011;1684;50.748;6.154;2023-03-04T01:48:07;57.30;;;24.50;;
3341;SDS011;1684;50.748;6.154;2023-03-04T01:50:36;49.70;;;25.17;;
3341;SDS011;1684;50.748;6.154;2023-03-04T01:53:04;70.50;;;26.90;;
3341;SDS011;1684;50.748;6.154;2023-03-04T01:55:32;59.40;;;23.90;;
3341;SDS011;1684;50.748;6.154;2023-03-04T01:58:01;49.50;;;23.40;;
3341;SDS011;1684;50.748;6.154;2023-03-04T02:00:32;59.30;;;29.40;;
3341;SDS011;1684;50.748;6.154;2023-03-04T02:03:05;62.77;;;25.73;;
3341;SDS011;1684;50.748;6.154;2023-03-04T02:05:34;64.53;;;26.10;;
3341;SDS011;1684;50.748;6.154;2023-03-04T02:08:02;56.30;;;23.33;;
3341;SDS011;1684;50.748;6.154;2023-03-04T02:10:31;73.87;;;27.73;;
3341;SDS011;1684;50.748;6.154;2023-03-04T02:13:00;66.57;;;28.10;;
3341;SDS011;1684;50.748;6.154;2023-03-04T02:15:29;60.00;;;27.60;;
3341;SDS011;1684;50.748;6.154;2023-03-04T02:17:58;61.33;;;29.17;;
3341;SDS011;1684;50.748;6.154;2023-03-04T02:20:33;63.43;;;28.03;;
3341;SDS011;1684;50.748;6.154;2023-03-04T02:23:04;71.00;;;29.60;;
3341;SDS011;1684;50.748;6.154;2023-03-04T02:25:35;65.57;;;27.00;;
3341;SDS011;1684;50.748;6.154;2023-03-04T02:28:05;76.47;;;30.97;;
3341;SDS011;1684;50.748;6.154;2023-03-04T02:30:34;74.50;;;28.87;;
3341;SDS011;1684;50.748;6.154;2023-03-04T02:33:02;71.83;;;28.40;;
3341;SDS011;1684;50.748;6.154;2023-03-04T02:35:31;77.10;;;27.50;;
3341;SDS011;1684;50.748;6.154;2023-03-04T02:37:59;72.20;;;27.57;;
3341;SDS011;1684;50.748;6.154;2023-03-04T02:40:29;62.60;;;28.30;;
3341;SDS011;1684;50.748;6.154;2023-03-04T02:42:58;71.83;;;27.40;;
3341;SDS011;1684;50.748;6.154;2023-03-04T02:45:35;60.50;;;27.50;;
3341;SDS011;1684;50.748;6.154;2023-03-04T02:48:05;58.67;;;26.27;;
3341;SDS011;1684;50.748;6.154;2023-03-04T02:50:34;65.17;;;29.33;;
3341;SDS011;1684;50.748;6.154;2023-03-04T02:53:03;64.77;;;28.97;;
3341;SDS011;1684;50.748;6.154;2023-03-04T02:55:32;64.73;;;25.50;;
3341;SDS011;1684;50.748;6.154;2023-03-04T02:58:00;61.10;;;25.37;;
3341;SDS011;1684;50.748;6.154;2023-03-04T03:00:31;69.23;;;26.30;;
3341;SDS011;1684;50.748;6.154;2023-03-04T03:03:00;61.10;;;24.13;;
3341;SDS011;1684;50.748;6.154;2023-03-04T03:05:32;57.63;;;26.17;;
3341;SDS011;1684;50.748;6.154;2023-03-04T03:10:32;64.87;;;28.27;;
3341;SDS011;1684;50.748;6.154;2023-03-04T03:13:00;51.93;;;24.30;;
3341;SDS011;1684;50.748;6.154;2023-03-04T03:15:29;71.53;;;24.47;;
3341;SDS011;1684;50.748;6.154;2023-03-04T03:17:58;56.80;;;25.40;;
3341;SDS011;1684;50.748;6.154;2023-03-04T03:20:30;74.33;;;27.63;;
3341;SDS011;1684;50.748;6.154;2023-03-04T03:22:58;65.57;;;25.27;;
3341;SDS011;1684;50.748;6.154;2023-03-04T03:25:26;72.13;;;27.00;;
3341;SDS011;1684;50.748;6.154;2023-03-04T03:27:54;61.40;;;26.13;;
3341;SDS011;1684;50.748;6.154;2023-03-04T03:30:23;63.53;;;25.83;;
3341;SDS011;1684;50.748;6.154;2023-03-04T03:32:51;64.40;;;28.60;;
3341;SDS011;1684;50.748;6.154;2023-03-04T03:35:19;54.40;;;23.23;;
3341;SDS011;1684;50.748;6.154;2023-03-04T03:37:49;52.07;;;23.90;;
3341;SDS011;1684;50.748;6.154;2023-03-04T03:40:17;61.07;;;25.23;;
3341;SDS011;1684;50.748;6.154;2023-03-04T03:42:46;55.33;;;25.40;;
3341;SDS011;1684;50.748;6.154;2023-03-04T03:45:15;66.83;;;25.30;;
3341;SDS011;1684;50.748;6.154;2023-03-04T03:47:43;58.20;;;24.20;;
3341;SDS011;1684;50.748;6.154;2023-03-04T03:50:12;64.50;;;25.40;;
3341;SDS011;1684;50.748;6.154;2023-03-04T03:52:40;67.10;;;27.07;;
3341;SDS011;1684;50.748;6.154;2023-03-04T03:55:09;52.80;;;24.70;;
3341;SDS011;1684;50.748;6.154;2023-03-04T03:57:38;53.43;;;24.77;;
3341;SDS011;1684;50.748;6.154;2023-03-04T04:00:07;61.77;;;25.40;;
3341;SDS011;1684;50.748;6.154;2023-03-04T04:02:35;56.10;;;23.53;;
3341;SDS011;1684;50.748;6.154;2023-03-04T04:05:04;75.57;;;27.57;;
3341;SDS011;1684;50.748;6.154;2023-03-04T04:07:33;66.63;;;26.30;;
3341;SDS011;1684;50.748;6.154;2023-03-04T04:10:01;61.47;;;26.47;;
3341;SDS011;1684;50.748;6.154;2023-03-04T04:12:31;61.93;;;26.67;;
3341;SDS011;1684;50.748;6.154;2023-03-04T04:15:00;56.70;;;26.63;;
3341;SDS011;1684;50.748;6.154;2023-03-04T04:17:28;64.73;;;25.17;;
3341;SDS011;1684;50.748;6.154;2023-03-04T04:19:57;57.20;;;23.40;;
3341;SDS011;1684;50.748;6.154;2023-03-04T04:22:25;63.27;;;26.00;;
3341;SDS011;1684;50.748;6.154;2023-03-04T04:24:54;69.63;;;26.60;;
3341;SDS011;1684;50.748;6.154;2023-03-04T04:27:22;49.47;;;20.70;;
3341;SDS011;1684;50.748;6.154;2023-03-04T04:29:51;56.97;;;22.50;;
3341;SDS011;1684;50.748;6.154;2023-03-04T04:32:20;66.93;;;25.63;;
3341;SDS011;1684;50.748;6.154;2023-03-04T04:34:48;71.47;;;24.37;;
3341;SDS011;1684;50.748;6.154;2023-03-04T04:37:16;57.27;;;24.20;;
3341;SDS011;1684;50.748;6.154;2023-03-04T04:39:45;62.23;;;23.87;;
3341;SDS011;1684;50.748;6.154;2023-03-04T04:42:13;53.73;;;24.87;;
3341;SDS011;1684;50.748;6.154;2023-03-04T04:44:41;52.70;;;22.97;;
3341;SDS011;1684;50.748;6.154;2023-03-04T04:47:11;68.57;;;27.27;;
3341;SDS011;1684;50.748;6.154;2023-03-04T04:49:39;58.80;;;24.77;;
3341;SDS011;1684;50.748;6.154;2023-03-04T04:52:08;53.83;;;23.00;;
3341;SDS011;1684;50.748;6.154;2023-03-04T04:54:37;43.97;;;19.53;;
3341;SDS011;1684;50.748;6.154;2023-03-04T04:57:05;60.03;;;21.80;;
3341;SDS011;1684;50.748;6.154;2023-03-04T04:59:33;48.67;;;19.30;;
3341;SDS011;1684;50.748;6.154;2023-03-04T05:02:01;54.30;;;21.47;;
3341;SDS011;1684;50.748;6.154;2023-03-04T05:04:35;43.87;;;18.90;;
3341;SDS011;1684;50.748;6.154;2023-03-04T05:07:03;48.77;;;18.00;;
3341;SDS011;1684;50.748;6.154;2023-03-04T05:09:31;37.33;;;15.47;;
3341;SDS011;1684;50.748;6.154;2023-03-04T05:12:00;38.60;;;18.43;;
3341;SDS011;1684;50.748;6.154;2023-03-04T05:14:28;39.40;;;16.40;;
3341;SDS011;1684;50.748;6.154;2023-03-04T05:16:57;38.73;;;15.50;;
3341;SDS011;1684;50.748;6.154;2023-03-04T05:19:26;44.67;;;15.27;;
3341;SDS011;1684;50.748;6.154;2023-03-04T05:21:55;32.30;;;14.43;;
3341;SDS011;1684;50.748;6.154;2023-03-04T05:24:24;37.13;;;16.60;;
3341;SDS011;1684;50.748;6.154;2023-03-04T05:26:52;29.70;;;15.20;;
3341;SDS011;1684;50.748;6.154;2023-03-04T05:29:20;42.13;;;15.93;;
3341;SDS011;1684;50.748;6.154;2023-03-04T05:31:48;31.90;;;12.40;;
3341;SDS011;1684;50.748;6.154;2023-03-04T05:34:17;29.83;;;14.00;;
3341;SDS011;1684;50.748;6.154;2023-03-04T05:36:45;36.83;;;12.50;;
3341;SDS011;1684;50.748;6.154;2023-03-04T05:39:15;29.40;;;12.50;;
3341;SDS011;1684;50.748;6.154;2023-03-04T05:41:43;22.23;;;9.00;;
3341;SDS011;1684;50.748;6.154;2023-03-04T05:44:12;25.80;;;10.40;;
3341;SDS011;1684;50.748;6.154;2023-03-04T05:46:40;32.57;;;12.90;;
3341;SDS011;1684;50.748;6.154;2023-03-04T05:49:08;30.07;;;12.70;;
3341;SDS011;1684;50.748;6.154;2023-03-04T05:51:36;21.73;;;9.60;;
3341;SDS011;1684;50.748;6.154;2023-03-04T05:54:05;25.77;;;11.30;;
3341;SDS011;1684;50.748;6.154;2023-03-04T05:59:04;21.67;;;12.60;;
3341;SDS011;1684;50.748;6.154;2023-03-04T06:01:32;31.20;;;11.97;;
3341;SDS011;1684;50.748;6.154;2023-03-04T06:04:00;33.47;;;12.70;;
3341;SDS011;1684;50.748;6.154;2023-03-04T06:06:29;27.53;;;12.37;;
3341;SDS011;1684;50.748;6.154;2023-03-04T06:08:57;20.43;;;9.10;;
3341;SDS011;1684;50.748;6.154;2023-03-04T06:11:26;24.83;;;10.77;;
3341;SDS011;1684;50.748;6.154;2023-03-04T06:13:54;37.57;;;14.13;;
3341;SDS011;1684;50.748;6.154;2023-03-04T06:16:24;24.10;;;11.67;;
3341;SDS011;1684;50.748;6.154;2023-03-04T06:18:52;26.80;;;8.90;;
3341;SDS011;1684;50.748;6.154;2023-03-04T06:21:20;33.63;;;9.90;;
3341;SDS011;1684;50.748;6.154;2023-03-04T06:23:49;17.20;;;10.00;;
3341;SDS011;1684;50.748;6.154;2023-03-04T06:26:17;32.00;;;10.40;;
3341;SDS011;1684;50.748;6.154;2023-03-04T06:28:45;23.87;;;9.47;;
3341;SDS011;1684;50.748;6.154;2023-03-04T06:31:14;27.10;;;12.37;;
3341;SDS011;1684;50.748;6.154;2023-03-04T06:33:43;25.73;;;10.87;;
3341;SDS011;1684;50.748;6.154;2023-03-04T06:36:12;21.13;;;9.40;;
3341;SDS011;1684;50.748;6.154;2023-03-04T06:38:40;23.47;;;8.83;;
3341;SDS011;1684;50.748;6.154;2023-03-04T06:41:09;22.80;;;9.93;;
3341;SDS011;1684;50.748;6.154;2023-03-04T06:43:37;22.87;;;9.27;;
3341;SDS011;1684;50.748;6.154;2023-03-04T06:46:06;25.40;;;10.37;;
3341;SDS011;1684;50.748;6.154;2023-03-04T06:48:34;27.03;;;9.90;;
3341;SDS011;1684;50.748;6.154;2023-03-04T06:51:05;21.10;;;9.13;;
3341;SDS011;1684;50.748;6.154;2023-03-04T06:53:33;35.03;;;11.20;;
3341;SDS011;1684;50.748;6.154;2023-03-04T06:56:02;17.20;;;6.70;;
3341;SDS011;1684;50.748;6.154;2023-03-04T06:58:30;20.80;;;9.10;;
3341;SDS011;1684;50.748;6.154;2023-03-04T07:01:07;19.20;;;7.97;;
3341;SDS011;1684;50.748;6.154;2023-03-04T07:03:36;22.43;;;10.10;;
3341;SDS011;1684;50.748;6.154;2023-03-04T07:06:09;20.53;;;7.50;;
3341;SDS011;1684;50.748;6.154;2023-03-04T07:08:38;19.93;;;8.63;;
3341;SDS011;1684;50.748;6.154;2023-03-04T07:11:08;19.80;;;8.17;;
3341;SDS011;1684;50.748;6.154;2023-03-04T07:13:37;17.83;;;7.57;;
3341;SDS011;1684;50.748;6.154;2023-03-04T07:16:05;26.20;;;8.87;;
3341;SDS011;1684;50.748;6.154;2023-03-04T07:18:34;16.87;;;7.40;;
3341;SDS011;1684;50.748;6.154;2023-03-04T07:21:03;29.87;;;8.90;;
3341;SDS011;1684;50.748;6.154;2023-03-04T07:23:34;16.40;;;7.50;;
3341;SDS011;1684;50.748;6.154;2023-03-04T07:26:02;22.03;;;6.83;;
3341;SDS011;1684;50.748;6.154;2023-03-04T07:28:31;17.07;;;7.50;;
3341;SDS011;1684;50.748;6.154;2023-03-04T07:31:06;23.73;;;8.57;;
3341;SDS011;1684;50.748;6.154;2023-03-04T07:33:35;18.63;;;9.10;;
3341;SDS011;1684;50.748;6.154;2023-03-04T07:36:03;17.13;;;7.83;;
3341;SDS011;1684;50.748;6.154;2023-03-04T07:38:34;9.17;;;5.87;;
3341;SDS011;1684;50.748;6.154;2023-03-04T07:41:02;20.93;;;7.43;;
3341;SDS011;1684;50.748;6.154;2023-03-04T07:43:32;20.17;;;7.50;;
3341;SDS011;1684;50.748;6.154;2023-03-04T07:46:01;15.40;;;7.20;;
3341;SDS011;1684;50.748;6.154;2023-03-04T07:48:30;14.73;;;6.20;;
3341;SDS011;1684;50.748;6.154;2023-03-04T07:51:02;9.83;;;5.87;;
3341;SDS011;1684;50.748;6.154;2023-03-04T07:53:31;19.50;;;7.23;;
3341;SDS011;1684;50.748;6.154;2023-03-04T07:56:01;19.87;;;6.50;;
3341;SDS011;1684;50.748;6.154;2023-03-04T07:58:32;18.47;;;7.73;;
3341;SDS011;1684;50.748;6.154;2023-03-04T08:01:00;14.93;;;6.53;;
3341;SDS011;1684;50.748;6.154;2023-03-04T08:03:33;23.67;;;7.70;;
3341;SDS011;1684;50.748;6.154;2023-03-04T08:06:03;19.97;;;4.30;;
3341;SDS011;1684;50.748;6.154;2023-03-04T08:08:31;11.93;;;6.03;;
3341;SDS011;1684;50.748;6.154;2023-03-04T08:11:02;19.43;;;7.43;;
3341;SDS011;1684;50.748;6.154;2023-03-04T08:13:31;12.30;;;5.97;;
3341;SDS011;1684;50.748;6.154;2023-03-04T08:15:59;16.10;;;5.63;;
3341;SDS011;1684;50.748;6.154;2023-03-04T08:18:28;17.80;;;6.80;;
3341;SDS011;1684;50.748;6.154;2023-03-04T08:20:56;14.03;;;7.50;;
3341;SDS011;1684;50.748;6.154;2023-03-04T08:23:26;18.27;;;5.73;;
3341;SDS011;1684;50.748;6.154;2023-03-04T08:25:56;12.60;;;6.40;;
3341;SDS011;1684;50.748;6.154;2023-03-04T08:28:26;11.30;;;4.50;;
3341;SDS011;1684;50.748;6.154;2023-03-04T08:30:54;12.93;;;6.10;;
3341;SDS011;1684;50.748;6.154;2023-03-04T08:33:22;3.53;;;2.43;;
3341;SDS011;1684;50.748;6.154;2023-03-04T08:35:51;11.03;;;5.63;;
3341;SDS011;1684;50.748;6.154;2023-03-04T08:38:19;9.27;;;4.77;;
3341;SDS011;1684;50.748;6.154;2023-03-04T08:40:50;8.60;;;3.80;;
3341;SDS011;1684;50.748;6.154;2023-03-04T08:43:19;19.23;;;5.60;;
3341;SDS011;1684;50.748;6.154;2023-03-04T08:45:49;13.70;;;5.60;;
3341;SDS011;1684;50.748;6.154;2023-03-04T08:48:18;11.63;;;4.80;;
3341;SDS011;1684;50.748;6.154;2023-03-04T08:50:46;14.13;;;5.40;;
3341;SDS011;1684;50.748;6.154;2023-03-04T08:53:15;19.40;;;5.40;;
3341;SDS011;1684;50.748;6.154;2023-03-04T08:55:44;3.67;;;1.80;;
3341;SDS011;1684;50.748;6.154;2023-03-04T08:58:13;9.90;;;2.60;;
3341;SDS011;1684;50.748;6.154;2023-03-04T09:00:42;13.03;;;5.40;;
3341;SDS011;1684;50.748;6.154;2023-03-04T09:03:15;8.63;;;4.43;;
3341;SDS011;1684;50.748;6.154;2023-03-04T09:05:44;11.97;;;4.20;;
3341;SDS011;1684;50.748;6.154;2023-03-04T09:08:15;11.03;;;3.70;;
3341;SDS011;1684;50.748;6.154;2023-03-04T09:10:44;6.97;;;2.70;;
3341;SDS011;1684;50.748;6.154;2023-03-04T09:13:14;9.33;;;4.30;;
3341;SDS011;1684;50.748;6.154;2023-03-04T09:15:45;4.13;;;2.13;;
3341;SDS011;1684;50.748;6.154;2023-03-04T09:18:16;9.60;;;3.40;;
3341;SDS011;1684;50.748;6.154;2023-03-04T09:20:44;4.67;;;1.90;;
3341;SDS011;1684;50.748;6.154;2023-03-04T09:23:13;3.23;;;1.73;;
3341;SDS011;1684;50.748;6.154;2023-03-04T09:25:42;8.10;;;3.90;;
3341;SDS011;1684;50.748;6.154;2023-03-04T09:28:13;6.53;;;2.27;;
3341;SDS011;1684;50.748;6.154;2023-03-04T09:30:42;7.50;;;2.67;;
3341;SDS011;1684;50.748;6.154;2023-03-04T09:33:10;5.73;;;1.70;;
3341;SDS011;1684;50.748;6.154;2023-03-04T09:35:40;4.63;;;1.37;;
3341;SDS011;1684;50.748;6.154;2023-03-04T09:38:09;6.77;;;1.80;;
3341;SDS011;1684;50.748;6.154;2023-03-04T09:40:38;5.67;;;2.77;;
3341;SDS011;1684;50.748;6.154;2023-03-04T09:43:10;5.50;;;3.17;;
3341;SDS011;1684;50.748;6.154;2023-03-04T09:45:40;3.93;;;1.23;;
3341;SDS011;1684;50.748;6.154;2023-03-04T09:48:09;12.80;;;1.80;;
3341;SDS011;1684;50.748;6.154;2023-03-04T09:50:42;5.50;;;1.90;;
3341;SDS011;1684;50.748;6.154;2023-03-04T09:53:18;5.90;;;2.80;;
3341;SDS011;1684;50.748;6.154;2023-03-04T09:55:48;2.77;;;0.97;;
3341;SDS011;1684;50.748;6.154;2023-03-04T09:58:23;8.00;;;2.23;;
3341;SDS011;1684;50.748;6.154;2023-03-04T10:00:55;15.83;;;2.57;;
3341;SDS011;1684;50.748;6.154;2023-03-04T10:03:26;2.13;;;0.90;;
3341;SDS011;1684;50.748;6.154;2023-03-04T10:06:03;6.97;;;3.03;;
3341;SDS011;1684;50.748;6.154;2023-03-04T10:08:34;10.20;;;2.50;;
3341;SDS011;1684;50.748;6.154;2023-03-04T10:11:05;4.27;;;1.50;;
3341;SDS011;1684;50.748;6.154;2023-03-04T10:13:37;5.63;;;2.23;;
3341;SDS011;1684;50.748;6.154;2023-03-04T10:16:09;4.00;;;1.50;;
3341;SDS011;1684;50.748;6.154;2023-03-04T10:18:40;5.00;;;1.83;;
3341;SDS011;1684;50.748;6.154;2023-03-04T10:21:14;3.17;;;1.00;;
3341;SDS011;1684;50.748;6.154;2023-03-04T10:23:44;2.57;;;0.97;;
3341;SDS011;1684;50.748;6.154;2023-03-04T10:26:14;2.10;;;1.03;;
3341;SDS011;1684;50.748;6.154;2023-03-04T10:28:42;6.30;;;2.80;;
3341;SDS011;1684;50.748;6.154;2023-03-04T10:31:11;3.40;;;0.83;;
3341;SDS011;1684;50.748;6.154;2023-03-04T10:33:42;4.10;;;2.00;;
3341;SDS011;1684;50.748;6.154;2023-03-04T10:36:20;6.60;;;2.60;;
3341;SDS011;1684;50.748;6.154;2023-03-04T10:38:54;5.40;;;1.67;;
3341;SDS011;1684;50.748;6.154;2023-03-04T10:41:24;5.17;;;2.77;;
3341;SDS011;1684;50.748;6.154;2023-03-04T10:44:00;2.00;;;0.60;;
3341;SDS011;1684;50.748;6.154;2023-03-04T10:46:28;4.10;;;2.03;;
3341;SDS011;1684;50.748;6.154;2023-03-04T10:48:57;6.17;;;1.70;;
3341;SDS011;1684;50.748;6.154;2023-03-04T10:51:27;4.80;;;2.37;;
3341;SDS011;1684;50.748;6.154;2023-03-04T10:53:56;2.87;;;1.43;;
3341;SDS011;1684;50.748;6.154;2023-03-04T10:56:32;6.13;;;1.83;;
3341;SDS011;1684;50.748;6.154;2023-03-04T11:01:44;4.43;;;2.37;;
3341;SDS011;1684;50.748;6.154;2023-03-04T11:04:15;4.30;;;2.00;;
3341;SDS011;1684;50.748;6.154;2023-03-04T11:06:45;4.80;;;1.00;;
3341;SDS011;1684;50.748;6.154;2023-03-04T11:09:20;5.10;;;2.33;;
3341;SDS011;1684;50.748;6.154;2023-03-04T11:11:49;5.93;;;2.20;;
3341;SDS011;1684;50.748;6.154;2023-03-04T11:14:21;9.43;;;1.90;;
3341;SDS011;1684;50.748;6.154;2023-03-04T11:16:53;7.90;;;2.50;;
3341;SDS011;1684;50.748;6.154;2023-03-04T11:19:28;2.30;;;1.13;;
3341;SDS011;1684;50.748;6.154;2023-03-04T11:22:00;6.60;;;2.23;;
3341;SDS011;1684;50.748;6.154;2023-03-04T11:24:31;3.73;;;0.70;;
3341;SDS011;1684;50.748;6.154;2023-03-04T11:27:02;2.03;;;0.77;;
3341;SDS011;1684;50.748;6.154;2023-03-04T11:29:33;3.27;;;1.70;;
3341;SDS011;1684;50.748;6.154;2023-03-04T11:32:05;4.37;;;1.90;;
3341;SDS011;1684;50.748;6.154;2023-03-04T11:34:36;5.83;;;1.83;;
3341;SDS011;1684;50.748;6.154;2023-03-04T11:37:09;18.73;;;2.67;;
3341;SDS011;1684;50.748;6.154;2023-03-04T11:39:40;4.30;;;0.97;;
3341;SDS011;1684;50.748;6.154;2023-03-04T11:42:12;3.10;;;1.60;;
3341;SDS011;1684;50.748;6.154;2023-03-04T11:44:44;4.70;;;1.17;;
3341;SDS011;1684;50.748;6.154;2023-03-04T11:47:16;4.87;;;1.50;;
3341;SDS011;1684;50.748;6.154;2023-03-04T11:50:03;4.77;;;1.13;;
3341;SDS011;1684;50.748;6.154;2023-03-04T11:52:41;5.60;;;2.40;;
3341;SDS011;1684;50.748;6.154;2023-03-04T11:55:19;5.00;;;2.03;;
3341;SDS011;1684;50.748;6.154;2023-03-04T11:57:51;7.83;;;2.50;;
3341;SDS011;1684;50.748;6.154;2023-03-04T12:00:25;6.83;;;2.50;;
3341;SDS011;1684;50.748;6.154;2023-03-04T12:03:09;6.93;;;2.17;;
3341;SDS011;1684;50.748;6.154;2023-03-04T12:05:44;4.13;;;1.97;;
3341;SDS011;1684;50.748;6.154;2023-03-04T12:08:22;4.90;;;1.77;;
3341;SDS011;1684;50.748;6.154;2023-03-04T12:10:55;6.73;;;2.00;;
3341;SDS011;1684;50.748;6.154;2023-03-04T12:13:34;2.30;;;1.00;;
3341;SDS011;1684;50.748;6.154;2023-03-04T12:16:20;4.00;;;2.10;;
3341;SDS011;1684;50.748;6.154;2023-03-04T12:19:00;4.73;;;2.13;;
3341;SDS011;1684;50.748;6.154;2023-03-04T12:21:45;4.30;;;1.70;;
3341;SDS011;1684;50.748;6.154;2023-03-04T12:24:23;4.43;;;2.30;;
3341;SDS011;1684;50.748;6.154;2023-03-04T12:26:56;10.00;;;2.93;;
3341;SDS011;1684;50.748;6.154;2023-03-04T12:29:28;5.40;;;1.60;;
3341;SDS011;1684;50.748;6.154;2023-03-04T12:32:02;4.63;;;1.50;;
3341;SDS011;1684;50.748;6.154;2023-03-04T12:34:42;5.10;;;2.33;;
3341;SDS011;1684;50.748;6.154;2023-03-04T12:40:20;6.90;;;2.33;;
3341;SDS011;1684;50.748;6.154;2023-03-04T12:42:55;4.00;;;2.30;;
3341;SDS011;1684;50.748;6.154;2023-03-04T12:45:26;2.47;;;1.27;;
3341;SDS011;1684;50.748;6.154;2023-03-04T12:47:59;3.73;;;1.70;;
3341;SDS011;1684;50.748;6.154;2023-03-04T12:50:35;2.63;;;1.27;;
3341;SDS011;1684;50.748;6.154;2023-03-04T12:53:09;9.50;;;2.37;;
3341;SDS011;1684;50.748;6.154;2023-03-04T12:55:41;3.23;;;1.50;;
3341;SDS011;1684;50.748;6.154;2023-03-04T12:58:13;3.50;;;1.37;;
3341;SDS011;1684;50.748;6.154;2023-03-04T13:00:51;5.50;;;1.43;;
3341;SDS011;1684;50.748;6.154;2023-03-04T13:03:23;4.07;;;1.70;;
3341;SDS011;1684;50.748;6.154;2023-03-04T13:05:55;4.77;;;1.93;;
3341;SDS011;1684;50.748;6.154;2023-03-04T13:08:31;5.20;;;2.00;;
3341;SDS011;1684;50.748;6.154;2023-03-04T13:11:07;2.50;;;1.13;;
3341;SDS011;1684;50.748;6.154;2023-03-04T13:14:00;2.20;;;0.77;;
3341;SDS011;1684;50.748;6.154;2023-03-04T13:16:29;4.93;;;1.80;;
3341;SDS011;1684;50.748;6.154;2023-03-04T13:18:58;4.80;;;1.80;;
3341;SDS011;1684;50.748;6.154;2023-03-04T13:21:27;3.20;;;1.60;;
3341;SDS011;1684;50.748;6.154;2023-03-04T13:23:56;3.70;;;1.40;;
3341;SDS011;1684;50.748;6.154;2023-03-04T13:26:27;4.17;;;2.00;;
3341;SDS011;1684;50.748;6.154;2023-03-04T13:29:29;10.63;;;1.80;;
3341;SDS011;1684;50.748;6.154;2023-03-04T13:32:00;3.10;;;1.40;;
3341;SDS011;1684;50.748;6.154;2023-03-04T13:34:41;3.00;;;1.57;;
3341;SDS011;1684;50.748;6.154;2023-03-04T13:37:24;4.00;;;1.67;;
3341;SDS011;1684;50.748;6.154;2023-03-04T13:42:49;7.43;;;2.00;;
3341;SDS011;1684;50.748;6.154;2023-03-04T13:45:32;5.10;;;2.27;;
3341;SDS011;1684;50.748;6.154;2023-03-04T13:48:00;5.40;;;1.53;;
3341;SDS011;1684;50.748;6.154;2023-03-04T13:50:36;4.20;;;1.70;;
3341;SDS011;1684;50.748;6.154;2023-03-04T13:53:19;5.90;;;2.90;;
3341;SDS011;1684;50.748;6.154;2023-03-04T13:56:09;7.00;;;2.10;;
3341;SDS011;1684;50.748;6.154;2023-03-04T13:58:39;6.70;;;2.60;;
3341;SDS011;1684;50.748;6.154;2023-03-04T14:01:19;5.30;;;1.53;;
3341;SDS011;1684;50.748;6.154;2023-03-04T14:03:49;4.90;;;1.40;;
3341;SDS011;1684;50.748;6.154;2023-03-04T14:06:17;5.60;;;1.70;;
3341;SDS011;1684;50.748;6.154;2023-03-04T14:08:47;3.20;;;1.27;;
3341;SDS011;1684;50.748;6.154;2023-03-04T14:11:17;4.83;;;1.70;;
3341;SDS011;1684;50.748;6.154;2023-03-04T14:13:48;4.00;;;1.87;;
3341;SDS011;1684;50.748;6.154;2023-03-04T14:16:19;4.37;;;2.00;;
3341;SDS011;1684;50.748;6.154;2023-03-04T14:19:00;4.23;;;1.57;;
3341;SDS011;1684;50.748;6.154;2023-03-04T14:21:29;5.77;;;2.70;;
3341;SDS011;1684;50.748;6.154;2023-03-04T14:23:59;5.23;;;2.10;;
3341;SDS011;1684;50.748;6.154;2023-03-04T14:26:27;2.97;;;1.60;;
3341;SDS011;1684;50.748;6.154;2023-03-04T14:28:56;4.47;;;2.20;;
3341;SDS011;1684;50.748;6.154;2023-03-04T14:31:29;6.93;;;1.93;;
3341;SDS011;1684;50.748;6.154;2023-03-04T14:34:01;5.40;;;1.63;;
3341;SDS011;1684;50.748;6.154;2023-03-04T14:36:31;6.30;;;2.50;;
3341;SDS011;1684;50.748;6.154;2023-03-04T14:39:00;3.73;;;1.83;;
3341;SDS011;1684;50.748;6.154;2023-03-04T14:41:30;4.30;;;2.17;;
3341;SDS011;1684;50.748;6.154;2023-03-04T14:44:02;6.77;;;3.10;;
3341;SDS011;1684;50.748;6.154;2023-03-04T14:46:35;6.80;;;2.80;;
3341;SDS011;1684;50.748;6.154;2023-03-04T14:49:05;4.40;;;2.20;;
3341;SDS011;1684;50.748;6.154;2023-03-04T14:51:39;8.93;;;3.30;;
3341;SDS011;1684;50.748;6.154;2023-03-04T14:54:24;6.03;;;2.10;;
3341;SDS011;1684;50.748;6.154;2023-03-04T14:56:53;9.57;;;3.90;;
3341;SDS011;1684;50.748;6.154;2023-03-04T14:59:28;7.40;;;2.20;;
3341;SDS011;1684;50.748;6.154;2023-03-04T15:04:50;9.07;;;3.37;;
3341;SDS011;1684;50.748;6.154;2023-03-04T15:07:21;4.10;;;2.83;;
3341;SDS011;1684;50.748;6.154;2023-03-04T15:09:51;4.17;;;1.57;;
3341;SDS011;1684;50.748;6.154;2023-03-04T15:12:22;5.53;;;2.60;;
3341;SDS011;1684;50.748;6.154;2023-03-04T15:14:51;10.00;;;2.57;;
3341;SDS011;1684;50.748;6.154;2023-03-04T15:17:22;6.80;;;3.00;;
3341;SDS011;1684;50.748;6.154;2023-03-04T15:19:58;4.60;;;2.87;;
3341;SDS011;1684;50.748;6.154;2023-03-04T15:22:26;3.50;;;2.03;;
3341;SDS011;1684;50.748;6.154;2023-03-04T15:24:57;6.63;;;2.10;;
3341;SDS011;1684;50.748;6.154;2023-03-04T15:27:26;9.10;;;2.97;;
3341;SDS011;1684;50.748;6.154;2023-03-04T15:29:58;4.07;;;2.50;;
3341;SDS011;1684;50.748;6.154;2023-03-04T15:32:27;5.47;;;2.90;;
3341;SDS011;1684;50.748;6.154;2023-03-04T15:34:57;10.47;;;4.40;;
3341;SDS011;1684;50.748;6.154;2023-03-04T15:37:27;4.20;;;2.00;;